Centre Hospitalier Heliport

FR-0049 · Côtes-d'Armor, Bretagna, Francia

Storia di METAR FR-0049 · Centre Hospitalier Heliport

Di seguito sono riportati i METAR degli ultimi giorni. Seleziona un anno per sfogliare i METAR più vecchi, dall'anno 2007 in poi.

17 luglio 2024

Tempo Codice Tempo meteorologico Temp. Vista Base nuvolosa Vento METAR/SPECI
12:00
V
20 °C 10 km+ - Var Var 3 kt METAR LFRO 171000Z AUTO VRB03KT 9999 SCT033 20/12 Q1021
11:30
V
19 °C 10 km+ - 180° 180° 3 kt METAR LFRO 170930Z AUTO 18003KT 110V220 9999 SCT026 19/13 Q1021
11:00
M
18 °C 10 km+ 2.500 ft 200° 200° 3 kt METAR LFRO 170900Z AUTO 20003KT 130V230 9999 OVC025 18/12 Q1021
10:30
V
19 °C 10 km+ - 160° 160° 4 kt METAR LFRO 170830Z AUTO 16004KT 120V190 9999 FEW025 19/13 Q1021
10:00
V
18 °C 10 km+ - Var Var 1 kt METAR LFRO 170800Z AUTO VRB01KT CAVOK 18/12 Q1021
09:30
V
18 °C 10 km+ - Var Var 2 kt METAR LFRO 170730Z AUTO VRB02KT CAVOK 18/12 Q1022
09:00
V
17 °C 10 km+ - 300° 300° 4 kt METAR LFRO 170700Z AUTO 30004KT CAVOK 17/11 Q1021
08:30
V
16 °C 10 km+ - 300° 300° 3 kt METAR LFRO 170630Z AUTO 30003KT 270V350 9999 FEW029 16/12 Q1021
08:00
M
15 °C 10 km+ 2.700 ft Var Var 2 kt METAR LFRO 170600Z AUTO VRB02KT 9999 OVC027 15/13 Q1021

16 luglio 2024

Tempo Codice Tempo meteorologico Temp. Vista Base nuvolosa Vento METAR/SPECI
23:00
I
15 °C 10 km+ 700 ft 280° 280° 10 kt METAR LFRO 162100Z AUTO 28010KT 9999 OVC007 15/14 Q1019
22:30
I
15 °C 10 km+ 700 ft 270° 270° 7 kt METAR LFRO 162030Z AUTO 27007KT 9999 OVC007 15/14 Q1019
22:00
I
16 °C 10 km+ 800 ft 270° 270° 9 kt METAR LFRO 162000Z AUTO 27009KT 9999 BKN008 16/14 Q1019
21:30
I
16 °C 10 km+ 900 ft 270° 270° 10 kt METAR LFRO 161930Z AUTO 27010KT 9999 BKN009 16/14 Q1019
21:00
V
16 °C 10 km+ - 260° 260° 12 kt METAR LFRO 161900Z AUTO 26012KT 9999 FEW013 16/14 Q1019
20:30
V
17 °C 10 km+ - 280° 280° 12 kt METAR LFRO 161830Z AUTO 28012KT CAVOK 17/14 Q1018
20:00
V
18 °C 10 km+ - 270° 270° 12 kt METAR LFRO 161800Z AUTO 27012KT 9999 FEW016 18/13 Q1018
19:30
V
18 °C 10 km+ - 280° 280° 14 kt METAR LFRO 161730Z AUTO 28014KT 9999 SCT017 SCT210 18/14 Q1018
19:00
V
18 °C 10 km+ - 280° 280° 11 kt METAR LFRO 161700Z AUTO 28011KT CAVOK 18/14 Q1018
18:30
V
18 °C 10 km+ - 280° 280° 12 kt METAR LFRO 161630Z AUTO 28012KT 9999 FEW017 SCT220 18/14 Q1018
18:00
V
18 °C 10 km+ - 280° 280° 17 kt METAR LFRO 161600Z AUTO 28017KT 9999 FEW016 SCT210 18/13 Q1018
17:30
V
18 °C 10 km+ - 280° 280° 13 kt METAR LFRO 161530Z AUTO 28013KT 9999 FEW015 SCT220 18/14 Q1017
17:00
V
19 °C 10 km+ - 290° 290° 14 kt METAR LFRO 161500Z AUTO 29014KT 9999 SCT017 19/14 Q1017
16:30
V
19 °C 10 km+ - 290° 290° 14 kt METAR LFRO 161430Z AUTO 29014KT 9999 FEW014 19/14 Q1017
16:00
V
20 °C 10 km+ - 290° 290° 14 kt METAR LFRO 161400Z AUTO 29014KT CAVOK 20/15 Q1017
15:30
V
19 °C 10 km+ - 280° 280° 14 kt METAR LFRO 161330Z AUTO 28014KT 9999 FEW021 19/13 Q1017
15:00
V
19 °C 10 km+ - 300° 300° 13 kt METAR LFRO 161300Z AUTO 30013KT 9999 FEW020 19/13 Q1016
14:30
M
19 °C 10 km+ 2.000 ft 280° 280° 14 kt METAR LFRO 161230Z AUTO 28014KT 9999 BKN020 19/14 Q1016
14:00
M
20 °C 10 km+ 1.800 ft 270° 270° 13 kt METAR LFRO 161200Z AUTO 27013KT 240V300 9999 BKN018 20/15 Q1016
13:30
M
20 °C 10 km+ 1.900 ft 270° 270° 14 kt METAR LFRO 161130Z AUTO 27014KT 240V300 9999 BKN019 BKN042 20/15 Q1016
13:00
V
19 °C 10 km+ 4.200 ft 270° 270° 13 kt METAR LFRO 161100Z AUTO 27013KT 9999 SCT016 BKN042 19/14 Q1016
12:30
V
19 °C 10 km+ 4.500 ft 260° 260° 12 kt METAR LFRO 161030Z AUTO 26012KT 9999 SCT014 BKN045 19/15 Q1015
12:00
M
19 °C 10 km+ 1.400 ft 260° 260° 12 kt METAR LFRO 161000Z AUTO 26012KT 9999 OVC014 19/15 Q1015
11:30
M
18 °C 10 km+ 1.100 ft 270° 270° 14 kt METAR LFRO 160930Z AUTO 27014KT 9999 BKN011 BKN017 18/15 Q1014
11:00
M
18 °C 10 km+ 1.000 ft 260° 260° 14 kt METAR LFRO 160900Z AUTO 26014KT 9999 BKN010 BKN014 18/15 Q1014
10:30
I
17 °C 10 km+ 900 ft 260° 260° 14 kt METAR LFRO 160830Z AUTO 26014KT 9999 BKN009 OVC013 17/15 Q1014
10:00
M
17 °C 10 km+ 1.000 ft 260° 260° 13 kt METAR LFRO 160800Z AUTO 26013KT 9999 OVC010 17/15 Q1014
09:30
M
17 °C 10 km+ 1.000 ft 260° 260° 12 kt METAR LFRO 160730Z AUTO 26012KT 9999 OVC010 17/15 Q1013
09:00
M
16 °C 10 km+ 1.200 ft 240° 240° 9 kt METAR LFRO 160700Z AUTO 24009KT 9999 OVC012 16/14 Q1013
08:30
M
16 °C 10 km+ 1.200 ft 240° 240° 9 kt METAR LFRO 160630Z AUTO 24009KT 9999 OVC012 16/14 Q1013
08:00
M
15 °C 10 km+ 1.200 ft 240° 240° 9 kt METAR LFRO 160600Z AUTO 24009KT 9999 OVC012 15/14 Q1012

15 luglio 2024

Tempo Codice Tempo meteorologico Temp. Vista Base nuvolosa Vento METAR/SPECI
23:00
V
16 °C 10 km+ 5.000 ft 230° 230° 9 kt METAR LFRO 152100Z AUTO 23009KT 9999 FEW018 SCT027 BKN050 16/13 Q1009
22:30
M
16 °C 10 km+ 1.900 ft 220° 220° 8 kt METAR LFRO 152030Z AUTO 22008KT 9999 BKN019 OVC060 16/13 Q1008
22:00
V
17 °C 10 km+ 4.100 ft 230° 230° 12 kt METAR LFRO 152000Z AUTO 23012KT 9999 FEW025 BKN041 BKN047 17/13 Q1008
21:30
V
17 °C 10 km+ - 230° 230° 11 kt METAR LFRO 151930Z AUTO 23011KT CAVOK 17/13 Q1008
21:00
V
18 °C 10 km+ - 230° 230° 12 kt METAR LFRO 151900Z AUTO 23012KT CAVOK 18/13 Q1007
20:30
V
18 °C 10 km+ 5.800 ft 230° 230° 11 kt METAR LFRO 151830Z AUTO 23011KT 200V260 9999 FEW031/// BKN058/// BKN078/// ///TCU 18/14 Q1007
20:00
V
18 °C 10 km+ 4.100 ft 250° 250° 5 kt METAR LFRO 151800Z AUTO 25005KT 220V290 9999 FEW033 BKN041 BKN047 18/13 Q1007
19:30
V
18 °C 10 km+ 3.300 ft 280° 280° 5 kt METAR LFRO 151730Z AUTO 28005KT 250V310 9999 BKN033 BKN043 BKN050 18/13 Q1007
19:00
V
19 °C 10 km+ 4.600 ft 290° 290° 7 kt METAR LFRO 151700Z AUTO 29007KT 250V320 9999 SCT037/// BKN046/// BKN074/// ///TCU 19/13 Q1007
18:30
V
19 °C 10 km+ 5.800 ft 280° 280° 10 kt METAR LFRO 151630Z AUTO 28010KT 9999 FEW017/// SCT034/// BKN058/// ///CB 19/13 Q1007
18:00
V
17 °C 10 km+ 7.200 ft 280° 280° 10 kt METAR LFRO 151600Z AUTO 28010KT 9999 FEW034/// BKN072/// OVC090/// ///TCU 17/13 Q1007
17:30
V
18 °C 10 km+ - 270° 270° 14 kt METAR LFRO 151530Z AUTO 27014KT 9999 ///TCU 18/13 Q1007
17:00
V
19 °C 10 km+ - 270° 270° 15 kt METAR LFRO 151500Z AUTO 27015KT 9999 FEW009 19/14 Q1007
16:30
V
18 °C 10 km+ - 260° 260° 19 kt METAR LFRO 151430Z AUTO 26019KT 9999 SCT010 18/15 Q1006
16:00
V
18 °C 10 km+ - 270° 270° 19 kt METAR LFRO 151400Z AUTO 27019KT 9999 SCT009/// SCT013/// ///CB 18/15 Q1005
15:30
V
18 °C 10 km+ - 270° 270° 19 kt METAR LFRO 151330Z AUTO 27019KT 9999 FEW010/// SCT056/// ///CB 18/16 Q1005
15:00
M
18 °C 10 km+ 2.300 ft 240° 240° 14 kt METAR LFRO 151300Z AUTO 24014KT 9999 SCT011/// BKN023/// OVC034/// ///CB 18/15 Q1005
14:30
M
19 °C 10 km+ 1.500 ft 230° 230° 14 kt METAR LFRO 151230Z AUTO 23014KT 9999 BKN015/// BKN021/// OVC029/// ///TCU 19/17 Q1004
14:00
M
20 °C 10 km+ 1.500 ft 190° 190° 11 kt METAR LFRO 151200Z AUTO 19011KT 160V230 9999 OVC015 20/17 Q1004
13:30
M
20 °C 10 km+ 1.200 ft 170° 170° 11 kt METAR LFRO 151130Z AUTO 17011KT 130V200 9999 OVC012 20/17 Q1004
13:00
M
18 °C 10 km+ 1.200 ft 170° 170° 10 kt METAR LFRO 151100Z AUTO 17010KT 9999 BKN012 OVC017 18/16 Q1004
12:30
M
18 °C 10 km+ 1.500 ft 170° 170° 10 kt METAR LFRO 151030Z AUTO 17010KT 130V200 9999 OVC015/// ///TCU 18/16 Q1004
12:00
M
18 °C 10 km+ 1.400 ft 160° 160° 9 kt METAR LFRO 151000Z AUTO 16009KT 9999 BKN014/// BKN019/// OVC026/// ///TCU 18/16 Q1004
11:30
M
17 °C 10 km+ 1.500 ft 150° 150° 8 kt METAR LFRO 150930Z AUTO 15008KT 120V180 9999 OVC015/// ///CB 17/16 Q1005
11:00
M
16 °C 10 km+ 1.900 ft 130° 130° 11 kt METAR LFRO 150900Z AUTO 13011KT 9999 FEW008/// BKN019/// BKN025/// ///CB 16/15 Q1005
10:30
I
15 °C 10 km+ 600 ft 120° 120° 11 kt METAR LFRO 150830Z AUTO 12011KT 9999 BKN006/// BKN022/// OVC041/// ///CB 15/14 Q1005
10:00
M
14 °C 10 km+ 2.600 ft 100° 100° 6 kt METAR LFRO 150800Z AUTO 10006KT 070V140 9999 FEW004/// OVC026/// ///TCU 14/13 Q1005
09:30
M
13 °C 10 km+ 3.000 ft 110° 110° 6 kt METAR LFRO 150730Z AUTO 11006KT 9999 BKN030/// OVC035/// ///TCU 13/13 Q1006
09:00
V
13 °C 10 km+ 3.300 ft 100° 100° 6 kt METAR LFRO 150700Z AUTO 10006KT 9999 BKN033 BKN041 BKN062 13/12 Q1006
08:30
V
13 °C 10 km+ 3.800 ft 140° 140° 6 kt METAR LFRO 150630Z AUTO 14006KT 040V190 9999 SCT028/// BKN038/// BKN049/// ///TCU 13/12 Q1006
08:00
I
14 °C 4,9 km - 130° 130° 8 kt METAR LFRO 150600Z AUTO 13008KT 100V160 4900 RA BR ///CB 14/13 Q1007
Segnala modifiche